Aeroporto :
LOGIN :

Iscrizione | Disclaimer

   EN    FR    IT 

 










Sommario :    VFR   VFR Marginale   IFR   IFR Intensivo   IFR Molto Intensivo
Visibilità : 
Base nubi : 
>= 8 km
>= 3000ft
5 / 8 km
1000 / 3000 ft
1500m / 5 km
500 / 1000 ft
800 / 1500m
200 / 500 ft
< 800m
< 200 ft
Simboli :   Temporali  Nebbia  Neve Forte  Precipitazioni Forti  Vento > 20 kt
SIGMETs :   Varie  Temporali  Ghiacco  Turbolenza  Onda orograficha  Ceneri Vulcaniche






- Altitudine del aeroporto : -15 ft
- Codice IATA : RTM


EHRD - Rotterdam Zestienhoven

ULTIMO METAR :
  • 220955Z AUTO 21004KT 170V230 1100 R24/1300U BR BKN001 OVC002 05/04 Q1037 NOSIG

METARs OBSOLETI :
  • 220925Z AUTO 22004KT 0700 R24/1100D FG FEW001 BKN002 OVC004 05/04 Q1037 NOSIG
  • 220855Z AUTO 22003KT 2400 BR OVC003 04/04 Q1037 NOSIG
  • 220825Z AUTO 20005KT 170V230 2500 BR BKN002 OVC003 04/04 Q1037 NOSIG
  • 220755Z AUTO 19004KT 2000 BR BKN002 BKN012 OVC016 04/04 Q1036 NOSIG
  • 220725Z AUTO 21003KT 160V240 2700 BR BKN007 OVC008 04/04 Q1036 NOSIG

TAF TAF EHRD
Valido dal 22 a 06 ore il 23 a 12 ore UTC


220521Z 2206/2312 22005KT 2500 BR SCT001 BKN002 OVC004
PROB40 2206/2312 0600 FG BKN001
BECMG 2211/2214 VRB03KT



MetMap, La meteo Aeronautica in un colpo d'occhio ! - Copyright ORBIFLY Dicembre 2007 - Disclaimer

ORBIFLY MET'MAP TEAM :

Programmazione e sviluppo : Alexandra Zaïnal
Concezione : Baudouin d'Aumeries
Aiuto per la programmazione : Marc-Olivier Méhu
Supporto tecnico e logistico : Manuel Goepfert
Aiuto per la traduzione : Arnaldo La Scala

Contatto : metmap@orbifly.com




FONTI E CREDITI :

   NOAA